createdAt,value
2023-05-19T00:02:27.420Z,103069.13
2023-05-19T00:05:15.053Z,103069.81
2023-05-19T00:07:51.178Z,103075.58
2023-05-19T00:10:40.024Z,103082.55
2023-05-19T00:13:14.129Z,103086.04
2023-05-19T00:16:02.136Z,103087.23
2023-05-19T00:18:35.136Z,103086.52
2023-05-19T00:21:23.094Z,103089.31
2023-05-19T00:23:57.092Z,103085.63
2023-05-19T00:26:43.972Z,103087.02
2023-05-19T00:29:18.785Z,103090.15
2023-05-19T00:32:05.986Z,103088.39
2023-05-19T00:34:40.058Z,103089.94
2023-05-19T00:37:26.961Z,103090.95
2023-05-19T00:40:00.016Z,103093.54
2023-05-19T00:42:48.326Z,103097.70
2023-05-19T00:45:22.064Z,103095.40
2023-05-19T00:48:08.987Z,103095.71
2023-05-19T00:50:43.049Z,103098.86
2023-05-19T00:53:30.910Z,103103.05
2023-05-19T00:56:05.058Z,103102.69
2023-05-19T00:58:52.027Z,103102.30
2023-05-19T01:01:27.085Z,103103.85
2023-05-19T01:04:23.894Z,103102.92
2023-05-19T01:07:17.865Z,103102.70
2023-05-19T01:10:04.942Z,103100.36
2023-05-19T01:12:38.024Z,103098.93
2023-05-19T01:15:24.879Z,103101.54
2023-05-19T01:18:13.121Z,103105.91
2023-05-19T01:21:11.895Z,103110.45
2023-05-19T01:23:58.050Z,103109.54
2023-05-19T01:27:33.093Z,103105.83
2023-05-19T01:30:32.301Z,103109.11
2023-05-19T01:33:22.861Z,103112.05
2023-05-19T01:36:03.986Z,103112.39
2023-05-19T01:38:45.828Z,103114.64
2023-05-19T01:41:29.720Z,103116.55
2023-05-19T01:44:10.684Z,103116.51
2023-05-19T01:46:51.920Z,103117.16
2023-05-19T01:49:31.816Z,103114.33
2023-05-19T01:52:11.865Z,103116.02
2023-05-19T01:54:58.774Z,103115.80
2023-05-19T01:58:01.969Z,103117.35
2023-05-19T02:00:59.852Z,103117.68
2023-05-19T02:03:48.876Z,103114.85
2023-05-19T02:06:52.810Z,103115.51
2023-05-19T02:09:37.920Z,103114.77
2023-05-19T02:12:46.780Z,103115.07
2023-05-19T02:15:26.901Z,103115.35
2023-05-19T02:18:17.774Z,103117.94
2023-05-19T02:20:52.407Z,103112.52
2023-05-19T02:23:39.915Z,103110.04
2023-05-19T02:26:19.864Z,103114.56
2023-05-19T02:28:59.767Z,103114.88
2023-05-19T02:31:39.879Z,103111.52
2023-05-19T02:34:19.730Z,103109.89
2023-05-19T02:36:59.930Z,103113.15
2023-05-19T02:39:41.727Z,103114.85
2023-05-19T02:42:21.868Z,103112.42
2023-05-19T02:45:01.922Z,103109.51
2023-05-19T02:47:41.941Z,103108.41
2023-05-19T02:50:21.666Z,103112.58
2023-05-19T02:53:02.714Z,103110.45
2023-05-19T02:55:43.660Z,103109.90
2023-05-19T02:58:23.815Z,103113.57
2023-05-19T03:01:03.659Z,103114.11
2023-05-19T03:03:57.689Z,103115.20
2023-05-19T03:06:45.731Z,103112.94
2023-05-19T03:09:20.787Z,103115.59
2023-05-19T03:12:10.710Z,103115.62
2023-05-19T03:14:44.730Z,103117.77
2023-05-19T03:17:31.794Z,103119.72
2023-05-19T03:20:05.859Z,103120.31
2023-05-19T03:22:52.560Z,103120.20
2023-05-19T03:25:26.213Z,103123.09
2023-05-19T03:28:12.595Z,103128.05
2023-05-19T03:30:52.701Z,103126.51
2023-05-19T03:33:36.614Z,103127.77
2023-05-19T03:36:17.713Z,103130.40
2023-05-19T03:38:57.610Z,103134.10
2023-05-19T03:41:37.699Z,103134.48
2023-05-19T03:44:17.562Z,103141.02
2023-05-19T03:46:58.596Z,103139.85
2023-05-19T03:50:01.694Z,103143.39
2023-05-19T03:53:04.679Z,103147.09
2023-05-19T03:55:51.539Z,103148.86
2023-05-19T03:58:31.624Z,103153.14
2023-05-19T04:01:18.651Z,103151.48
2023-05-19T04:03:52.714Z,103154.70
2023-05-19T04:06:40.536Z,103155.65
2023-05-19T04:09:21.658Z,103155.88
2023-05-19T04:12:12.481Z,103155.41
2023-05-19T04:14:45.620Z,103156.85
2023-05-19T04:17:33.599Z,103160.90
2023-05-19T04:20:07.590Z,103165.68
2023-05-19T04:22:54.502Z,103163.81
2023-05-19T04:25:28.538Z,103166.48
2023-05-19T04:28:15.480Z,103166.88
2023-05-19T04:30:50.782Z,103169.72
2023-05-19T04:33:37.518Z,103163.46
2023-05-19T04:36:14.019Z,103166.29
2023-05-19T04:39:01.472Z,103164.04
2023-05-19T04:41:35.542Z,103161.80
2023-05-19T04:44:24.385Z,103160.60
2023-05-19T04:46:59.785Z,103159.77
2023-05-19T04:49:46.427Z,103159.66
2023-05-19T04:52:23.251Z,103159.52
2023-05-19T04:55:10.464Z,103162.36
2023-05-19T04:57:45.028Z,103165.21
2023-05-19T05:00:32.549Z,103162.61
2023-05-19T05:03:10.161Z,103163.71
2023-05-19T05:05:58.341Z,103163.38
2023-05-19T05:08:32.504Z,103163.58
2023-05-19T05:11:20.385Z,103163.58
2023-05-19T05:13:58.753Z,103164.29
2023-05-19T05:16:46.467Z,103161.33
2023-05-19T05:19:25.135Z,103161.00
2023-05-19T05:22:13.368Z,103161.52
2023-05-19T05:24:47.425Z,103161.52
2023-05-19T05:27:34.286Z,103159.08
2023-05-19T05:30:08.441Z,103158.36
2023-05-19T05:32:56.358Z,103158.89
2023-05-19T05:35:41.453Z,103160.29
2023-05-19T05:38:28.310Z,103159.93
2023-05-19T05:41:02.910Z,103161.68
2023-05-19T05:43:50.291Z,103161.66
2023-05-19T05:46:25.482Z,103163.40
2023-05-19T05:49:13.297Z,103163.55
2023-05-19T05:52:04.430Z,103158.95
2023-05-19T05:54:58.220Z,103163.67
2023-05-19T05:57:31.353Z,103166.98
2023-05-19T06:00:24.676Z,103164.98
2023-05-19T06:02:59.519Z,103166.53
2023-05-19T06:05:46.287Z,103165.98
2023-05-19T06:08:19.338Z,103168.02
2023-05-19T06:11:06.237Z,103166.04
2023-05-19T06:13:43.177Z,103166.14
2023-05-19T06:16:41.277Z,103166.94
2023-05-19T06:19:15.410Z,103169.48
2023-05-19T06:22:03.149Z,103165.54
2023-05-19T06:24:39.478Z,103161.56
2023-05-19T06:27:26.194Z,103163.40
2023-05-19T06:30:00.334Z,103161.54
2023-05-19T06:32:50.256Z,103160.73
2023-05-19T06:35:24.380Z,103160.09
2023-05-19T06:38:11.222Z,103156.65
2023-05-19T06:40:45.303Z,103157.09
2023-05-19T06:43:32.059Z,103155.05
2023-05-19T06:46:10.766Z,103155.48
2023-05-19T06:48:57.234Z,103157.10
2023-05-19T06:51:31.691Z,103157.50
2023-05-19T06:54:20.180Z,103157.88
2023-05-19T06:56:54.444Z,103152.77
2023-05-19T06:59:44.169Z,103148.91
2023-05-19T07:02:18.296Z,103149.98
2023-05-19T07:05:05.082Z,103153.88
2023-05-19T07:07:38.230Z,103154.25
2023-05-19T07:10:29.064Z,103152.67
2023-05-19T07:13:03.294Z,103154.80
2023-05-19T07:15:50.090Z,103158.88
2023-05-19T07:18:24.206Z,103160.62
2023-05-19T07:21:11.051Z,103162.22
2023-05-19T07:23:45.162Z,103163.64
2023-05-19T07:26:33.086Z,103163.44
2023-05-19T07:29:06.661Z,103165.05
2023-05-19T07:31:54.248Z,103159.02
2023-05-19T07:34:28.703Z,103158.13
2023-05-19T07:37:16.025Z,103158.30
2023-05-19T07:39:49.152Z,103156.17
2023-05-19T07:42:36.007Z,103150.27
2023-05-19T07:45:10.075Z,103148.09
2023-05-19T07:47:57.054Z,103144.77
2023-05-19T07:50:30.232Z,103144.63
2023-05-19T07:53:17.007Z,103142.42
2023-05-19T07:55:50.485Z,103137.43
2023-05-19T07:58:36.984Z,103140.55
2023-05-19T08:01:11.134Z,103145.23
2023-05-19T08:03:58.350Z,103139.58
2023-05-19T08:06:32.102Z,103140.66
2023-05-19T08:09:18.959Z,103139.27
2023-05-19T08:11:53.129Z,103138.85
2023-05-19T08:14:41.931Z,103142.00
2023-05-19T08:17:15.046Z,103141.34
2023-05-19T08:20:01.942Z,103138.94
2023-05-19T08:22:36.057Z,103143.81
2023-05-19T08:25:22.958Z,103145.52
2023-05-19T08:27:56.079Z,103140.73
2023-05-19T08:30:42.955Z,103139.35
2023-05-19T08:33:17.687Z,103142.08
2023-05-19T08:36:04.888Z,103139.64
2023-05-19T08:38:38.026Z,103137.91
2023-05-19T08:41:24.939Z,103138.25
2023-05-19T08:43:58.996Z,103139.70
2023-05-19T08:46:45.919Z,103138.61
2023-05-19T08:49:22.205Z,103138.57
2023-05-19T08:52:21.864Z,103138.32
2023-05-19T08:55:11.226Z,103141.48
2023-05-19T08:57:58.854Z,103137.77
2023-05-19T09:00:33.405Z,103135.08
2023-05-19T09:03:29.126Z,103136.30
2023-05-19T09:06:24.890Z,103133.45
2023-05-19T09:09:12.830Z,103131.79
2023-05-19T09:11:46.917Z,103134.00
2023-05-19T09:14:33.804Z,103138.47
2023-05-19T09:17:08.216Z,103138.20
2023-05-19T09:19:55.805Z,103139.17
2023-05-19T09:22:36.762Z,103140.09
2023-05-19T09:25:28.736Z,103142.70
2023-05-19T09:28:08.893Z,103142.43
2023-05-19T09:30:48.742Z,103146.55
2023-05-19T09:33:29.556Z,103144.25
2023-05-19T09:36:12.748Z,103144.46
2023-05-19T09:38:52.896Z,103139.13
2023-05-19T09:41:32.775Z,103133.00
2023-05-19T09:44:12.925Z,103133.08
2023-05-19T09:46:59.749Z,103131.41
2023-05-19T09:49:40.076Z,103126.79
2023-05-19T09:52:22.682Z,103124.77
2023-05-19T09:55:05.348Z,103119.20
2023-05-19T09:57:47.662Z,103119.70
2023-05-19T10:00:30.381Z,103122.92
2023-05-19T10:03:11.764Z,103118.13
2023-05-19T10:06:07.603Z,103117.03
2023-05-19T10:08:56.703Z,103115.81
2023-05-19T10:11:29.753Z,103117.98
2023-05-19T10:14:16.766Z,103117.94
2023-05-19T10:16:53.054Z,103119.80
2023-05-19T10:19:40.666Z,103115.66
2023-05-19T10:22:14.803Z,103117.30
2023-05-19T10:25:02.704Z,103114.70
2023-05-19T10:27:54.152Z,103117.46
2023-05-19T10:30:42.644Z,103117.36
2023-05-19T10:33:59.603Z,103117.11
2023-05-19T10:36:56.612Z,103111.85
2023-05-19T10:39:39.691Z,103110.73
2023-05-19T10:43:10.603Z,103113.92
2023-05-19T10:46:00.808Z,103113.96
2023-05-19T10:48:50.660Z,103111.33
2023-05-19T10:51:24.720Z,103108.29
2023-05-19T10:54:19.695Z,103109.00
2023-05-19T10:56:53.641Z,103106.25
2023-05-19T10:59:44.586Z,103105.01
2023-05-19T11:02:56.006Z,103104.05
2023-05-19T11:05:43.493Z,103101.52
2023-05-19T11:08:18.832Z,103102.46
2023-05-19T11:11:20.511Z,103099.27
2023-05-19T11:13:57.645Z,103095.31
2023-05-19T11:16:48.964Z,103097.55
2023-05-19T11:19:36.653Z,103102.10
2023-05-19T11:22:23.625Z,103101.59
2023-05-19T11:24:57.705Z,103100.21
2023-05-19T11:27:46.513Z,103101.58
2023-05-19T11:30:26.645Z,103102.23
2023-05-19T11:33:07.516Z,103103.42
2023-05-19T11:35:49.749Z,103100.13
2023-05-19T11:38:30.547Z,103098.97
2023-05-19T11:41:12.220Z,103100.72
2023-05-19T11:43:54.461Z,103099.00
2023-05-19T11:46:34.649Z,103096.55
2023-05-19T11:49:14.453Z,103101.52
2023-05-19T11:51:55.692Z,103102.19
2023-05-19T11:54:46.434Z,103100.77
2023-05-19T11:57:26.589Z,103102.10
2023-05-19T12:00:09.369Z,103104.23
2023-05-19T12:02:49.546Z,103104.27
2023-05-19T12:05:34.938Z,103104.38
2023-05-19T12:08:19.554Z,103103.89
2023-05-19T12:11:00.404Z,103103.17
2023-05-19T12:13:40.960Z,103104.20
2023-05-19T12:16:21.419Z,103103.08
2023-05-19T12:19:02.591Z,103105.46
2023-05-19T12:21:42.650Z,103098.52
2023-05-19T12:24:22.486Z,103098.63
2023-05-19T12:27:19.379Z,103097.14
2023-05-19T12:30:02.997Z,103095.30
2023-05-19T12:32:43.369Z,103093.45
2023-05-19T12:35:24.907Z,103091.02
2023-05-19T12:38:10.365Z,103091.90
2023-05-19T12:40:51.768Z,103095.91
2023-05-19T12:43:32.314Z,103095.90
2023-05-19T12:46:19.498Z,103094.55
2023-05-19T12:48:59.268Z,103094.64
2023-05-19T12:51:39.942Z,103093.95
2023-05-19T12:54:20.340Z,103090.93
2023-05-19T12:57:04.408Z,103094.10
2023-05-19T12:59:45.293Z,103099.02
2023-05-19T13:02:26.946Z,103101.49
2023-05-19T13:05:07.278Z,103098.68
2023-05-19T13:07:47.888Z,103095.34
2023-05-19T13:10:28.263Z,103094.04
2023-05-19T13:13:10.876Z,103090.40
2023-05-19T13:15:52.218Z,103087.05
2023-05-19T13:18:32.738Z,103084.95
2023-05-19T13:21:13.229Z,103085.91
2023-05-19T13:23:53.633Z,103084.19
2023-05-19T13:26:34.296Z,103082.10
2023-05-19T13:29:14.364Z,103081.30
2023-05-19T13:31:55.229Z,103085.89
2023-05-19T13:34:36.293Z,103084.19
2023-05-19T13:37:16.166Z,103078.41
2023-05-19T13:39:58.561Z,103079.53
2023-05-19T13:42:39.207Z,103079.35
2023-05-19T13:45:19.360Z,103079.23
2023-05-19T13:48:00.265Z,103077.69
2023-05-19T13:50:40.278Z,103074.89
2023-05-19T13:53:20.141Z,103074.88
2023-05-19T13:56:00.752Z,103072.46
2023-05-19T13:58:41.155Z,103072.13
2023-05-19T14:01:22.228Z,103072.94
2023-05-19T14:04:02.446Z,103070.61
2023-05-19T14:06:43.280Z,103073.69
2023-05-19T14:09:23.158Z,103070.98
2023-05-19T14:12:05.348Z,103069.83
2023-05-19T14:14:45.184Z,103069.27
2023-05-19T14:17:25.861Z,103072.09
2023-05-19T14:20:07.073Z,103069.46
2023-05-19T14:22:48.186Z,103068.91
2023-05-19T14:25:28.087Z,103069.30
2023-05-19T14:28:08.208Z,103071.73
2023-05-19T14:30:48.337Z,103069.77
2023-05-19T14:33:32.772Z,103066.07
2023-05-19T14:36:16.072Z,103068.27
2023-05-19T14:38:57.599Z,103070.45
2023-05-19T14:41:38.054Z,103067.81
2023-05-19T14:44:18.166Z,103067.27
2023-05-19T14:46:57.998Z,103068.01
2023-05-19T14:49:39.122Z,103066.50
2023-05-19T14:52:19.016Z,103067.67
2023-05-19T14:54:59.125Z,103066.05
2023-05-19T14:57:39.019Z,103064.65
2023-05-19T15:00:20.659Z,103060.87
2023-05-19T15:03:02.022Z,103060.75
2023-05-19T15:05:55.937Z,103063.52
2023-05-19T15:08:43.995Z,103060.66
2023-05-19T15:11:17.050Z,103056.94
2023-05-19T15:14:03.956Z,103053.55
2023-05-19T15:16:44.107Z,103050.52
2023-05-19T15:19:24.112Z,103052.87
2023-05-19T15:22:04.186Z,103049.45
2023-05-19T15:24:45.045Z,103044.91
2023-05-19T15:27:25.092Z,103042.89
2023-05-19T15:30:04.946Z,103045.16
2023-05-19T15:32:45.076Z,103044.27
2023-05-19T15:35:25.861Z,103037.46
2023-05-19T15:38:07.177Z,103040.29
2023-05-19T15:40:48.943Z,103036.55
2023-05-19T15:43:29.046Z,103036.20
2023-05-19T15:46:11.951Z,103038.36
2023-05-19T15:48:53.004Z,103035.65
2023-05-19T15:51:32.904Z,103033.58
2023-05-19T15:54:12.978Z,103033.05
2023-05-19T15:56:52.900Z,103035.88
2023-05-19T15:59:32.989Z,103034.73
2023-05-19T16:02:13.076Z,103034.02
2023-05-19T16:05:06.804Z,103032.18
2023-05-19T16:07:53.821Z,103036.00
2023-05-19T16:10:26.960Z,103032.23
2023-05-19T16:13:14.449Z,103033.31
2023-05-19T16:15:48.021Z,103034.04
2023-05-19T16:18:37.908Z,103030.98
2023-05-19T16:21:18.063Z,103028.08
2023-05-19T16:23:58.844Z,103027.42
2023-05-19T16:26:38.960Z,103027.41
2023-05-19T16:29:18.813Z,103025.61
